createdAt,value
2018-03-14T00:01:23.012Z,74.20
2018-03-14T00:03:52.634Z,74.20
2018-03-14T00:06:24.209Z,74.80
2018-03-14T00:08:54.515Z,75.10
2018-03-14T00:11:25.245Z,72.60
2018-03-14T00:13:55.991Z,71.90
2018-03-14T00:16:25.691Z,71.50
2018-03-14T00:18:55.409Z,71.70
2018-03-14T00:21:29.208Z,72.50
2018-03-14T00:24:03.014Z,74.00
2018-03-14T00:26:32.711Z,76.00
2018-03-14T00:29:02.421Z,77.90
2018-03-14T00:31:32.834Z,79.10
2018-03-14T00:34:02.520Z,79.80
2018-03-14T00:36:32.153Z,76.70
2018-03-14T00:39:02.024Z,74.60
2018-03-14T00:41:33.615Z,73.60
2018-03-14T00:44:06.406Z,73.70
2018-03-14T00:46:36.457Z,74.60
2018-03-14T00:49:09.666Z,80.30
2018-03-14T00:51:39.557Z,80.20
2018-03-14T00:54:09.922Z,78.80
2018-03-14T00:56:39.934Z,78.70
2018-03-14T00:59:09.822Z,76.90
2018-03-14T01:01:39.703Z,75.50
2018-03-14T01:04:11.342Z,75.30
2018-03-14T01:06:41.117Z,75.30
2018-03-14T01:09:12.347Z,73.10
2018-03-14T01:11:55.724Z,73.10
2018-03-14T01:14:41.854Z,71.00
2018-03-14T01:17:15.566Z,68.60
2018-03-14T01:19:48.783Z,68.50
2018-03-14T01:22:18.678Z,69.30
2018-03-14T01:24:48.800Z,69.70
2018-03-14T01:27:18.518Z,70.30
2018-03-14T01:29:48.276Z,70.50
2018-03-14T01:32:18.074Z,69.20
2018-03-14T01:34:47.786Z,69.50
2018-03-14T01:37:17.462Z,69.50
2018-03-14T01:39:47.207Z,70.00
2018-03-14T01:42:16.710Z,70.40
2018-03-14T01:44:47.249Z,71.60
2018-03-14T01:47:17.874Z,71.50
2018-03-14T01:49:48.226Z,72.00
2018-03-14T01:52:17.741Z,71.30
2018-03-14T01:54:48.136Z,73.10
2018-03-14T01:57:17.802Z,73.10
2018-03-14T01:59:47.655Z,73.60
2018-03-14T02:02:18.711Z,72.10
2018-03-14T02:04:48.413Z,72.10
2018-03-14T02:07:17.993Z,71.40
2018-03-14T02:09:47.575Z,70.80
2018-03-14T02:12:17.409Z,69.80
2018-03-14T02:14:47.209Z,68.40
2018-03-14T02:17:17.476Z,66.10
2018-03-14T02:19:47.021Z,64.50
2018-03-14T02:22:16.691Z,64.40
2018-03-14T02:24:48.031Z,65.10
2018-03-14T02:27:17.871Z,65.00
2018-03-14T02:29:48.186Z,68.40
2018-03-14T02:32:17.890Z,68.40
2018-03-14T02:34:48.282Z,71.20
2018-03-14T02:37:17.810Z,71.20
2018-03-14T02:39:47.337Z,70.70
2018-03-14T02:42:20.797Z,71.70
2018-03-14T02:44:50.866Z,71.60
2018-03-14T02:47:22.063Z,72.70
2018-03-14T02:49:52.304Z,72.60
2018-03-14T02:52:22.716Z,74.40
2018-03-14T02:54:53.057Z,74.30
2018-03-14T02:57:24.574Z,74.60
2018-03-14T02:59:54.329Z,74.60
2018-03-14T03:02:23.893Z,75.70
2018-03-14T03:04:53.558Z,76.80
2018-03-14T03:07:23.065Z,78.70
2018-03-14T03:09:52.573Z,81.30
2018-03-14T03:12:22.572Z,83.30
2018-03-14T03:14:53.699Z,85.00
2018-03-14T03:17:23.296Z,84.90
2018-03-14T03:19:53.051Z,84.50
2018-03-14T03:22:23.459Z,82.80
2018-03-14T03:24:53.583Z,82.80
2018-03-14T03:27:25.075Z,80.80
2018-03-14T03:29:56.118Z,79.80
2018-03-14T03:32:27.617Z,79.80
2018-03-14T03:34:57.863Z,79.40
2018-03-14T03:37:29.577Z,78.60
2018-03-14T03:40:01.863Z,76.00
2018-03-14T03:42:31.709Z,76.00
2018-03-14T03:45:04.988Z,75.90
2018-03-14T03:47:34.586Z,77.10
2018-03-14T03:50:04.511Z,77.60
2018-03-14T03:52:34.499Z,78.30
2018-03-14T03:55:05.062Z,78.40
2018-03-14T03:57:35.120Z,78.30
2018-03-14T04:00:05.449Z,79.10
2018-03-14T04:02:35.943Z,79.90
2018-03-14T04:05:06.110Z,81.30
2018-03-14T04:07:37.666Z,80.30
2018-03-14T04:10:07.726Z,79.60
2018-03-14T04:12:38.839Z,78.10
2018-03-14T04:15:09.228Z,78.10
2018-03-14T04:17:39.278Z,77.50
2018-03-14T04:20:09.445Z,78.10
2018-03-14T04:22:39.265Z,78.90
2018-03-14T04:25:08.960Z,82.10
2018-03-14T04:27:38.761Z,82.50
2018-03-14T04:30:08.290Z,81.80
2018-03-14T04:32:37.904Z,79.90
2018-03-14T04:35:07.803Z,80.40
2018-03-14T04:37:37.495Z,80.70
2018-03-14T04:40:07.115Z,81.30
2018-03-14T04:42:36.716Z,79.50
2018-03-14T04:45:06.450Z,78.70
2018-03-14T04:47:36.067Z,79.40
2018-03-14T04:50:05.761Z,80.40
2018-03-14T04:52:36.289Z,83.40
2018-03-14T04:55:06.211Z,83.30
2018-03-14T04:57:35.851Z,84.00
2018-03-14T05:00:06.428Z,83.40
2018-03-14T05:02:36.050Z,83.30
2018-03-14T05:05:05.758Z,82.50
2018-03-14T05:07:35.378Z,82.50
2018-03-14T05:10:05.157Z,82.90
2018-03-14T05:12:44.086Z,82.30
2018-03-14T05:15:13.759Z,82.50
2018-03-14T05:17:44.326Z,78.50
2018-03-14T05:20:14.150Z,78.50
2018-03-14T05:22:43.738Z,79.50
2018-03-14T05:25:13.447Z,79.10
2018-03-14T05:27:44.950Z,82.90
2018-03-14T05:30:18.161Z,84.30
2018-03-14T05:32:47.965Z,84.30
2018-03-14T05:35:19.834Z,83.80
2018-03-14T05:37:51.940Z,82.80
2018-03-14T05:40:33.074Z,82.60
2018-03-14T05:43:03.224Z,82.40
2018-03-14T05:45:34.083Z,82.80
2018-03-14T05:48:03.699Z,82.80
2018-03-14T05:50:33.325Z,82.60
2018-03-14T05:53:03.534Z,82.90
2018-03-14T05:55:33.358Z,82.80
2018-03-14T05:58:02.907Z,82.30
2018-03-14T06:00:32.567Z,83.00
2018-03-14T06:03:02.284Z,81.60
2018-03-14T06:05:32.000Z,81.50
2018-03-14T06:08:01.776Z,80.70
2018-03-14T06:10:33.888Z,80.30
2018-03-14T06:13:03.642Z,82.50
2018-03-14T06:15:34.131Z,82.90
2018-03-14T06:18:03.887Z,84.60
2018-03-14T06:20:34.460Z,83.20
2018-03-14T06:23:05.617Z,83.10
2018-03-14T06:25:36.320Z,80.90
2018-03-14T06:28:06.425Z,80.20
2018-03-14T06:30:55.722Z,80.70
2018-03-14T06:33:33.405Z,80.40
2018-03-14T06:36:05.063Z,81.60
2018-03-14T06:39:09.018Z,81.60
2018-03-14T06:44:46.338Z,79.50
2018-03-14T06:47:17.312Z,78.70
2018-03-14T06:50:00.313Z,78.60
2018-03-14T06:52:31.000Z,77.70
2018-03-14T06:55:00.781Z,78.20
2018-03-14T06:57:30.294Z,75.50
2018-03-14T07:00:18.682Z,75.30
2018-03-14T07:02:49.154Z,75.40
2018-03-14T07:05:37.499Z,76.70
2018-03-14T07:08:07.006Z,75.00
2018-03-14T07:10:36.627Z,75.00
2018-03-14T07:13:06.361Z,75.10
2018-03-14T07:15:36.896Z,74.30
2018-03-14T07:18:06.515Z,74.70
2018-03-14T07:20:36.116Z,75.20
2018-03-14T07:23:05.928Z,73.10
2018-03-14T07:25:35.637Z,74.40
2018-03-14T07:28:05.253Z,74.00
2018-03-14T07:30:34.831Z,73.00
2018-03-14T07:33:04.517Z,72.40
2018-03-14T07:35:34.190Z,72.80
2018-03-14T07:38:03.753Z,72.10
2018-03-14T07:40:33.477Z,70.00
2018-03-14T07:43:03.089Z,68.10
2018-03-14T07:45:32.749Z,62.60
2018-03-14T07:48:02.386Z,59.00
2018-03-14T07:50:32.238Z,61.10
2018-03-14T07:53:01.919Z,59.30
2018-03-14T07:55:31.757Z,61.30
2018-03-14T07:58:01.607Z,62.50
2018-03-14T08:00:34.179Z,64.40
2018-03-14T08:03:04.668Z,63.20
2018-03-14T08:05:37.208Z,63.10
2018-03-14T08:08:07.895Z,60.70
2018-03-14T08:10:37.569Z,60.70
2018-03-14T08:13:07.335Z,63.20
2018-03-14T08:15:37.817Z,59.20
2018-03-14T08:18:07.552Z,59.20
2018-03-14T08:20:37.086Z,55.60
2018-03-14T08:23:06.758Z,52.30
2018-03-14T08:25:36.379Z,49.90
2018-03-14T08:28:05.950Z,50.50
2018-03-14T08:30:35.795Z,49.90
2018-03-14T08:33:06.153Z,53.20
2018-03-14T08:35:36.170Z,47.70
2018-03-14T08:38:06.972Z,42.40
2018-03-14T08:40:37.812Z,39.20
2018-03-14T08:43:07.844Z,38.20
2018-03-14T08:45:38.254Z,36.50
2018-03-14T08:48:08.011Z,30.00
2018-03-14T08:50:37.779Z,31.80
2018-03-14T08:53:07.598Z,31.40
2018-03-14T08:55:45.983Z,38.80
2018-03-14T08:58:15.944Z,38.80
2018-03-14T09:00:45.800Z,41.60
2018-03-14T09:03:16.833Z,44.20
2018-03-14T09:05:51.151Z,52.00
2018-03-14T09:08:21.129Z,52.10
2018-03-14T09:10:50.943Z,53.60
2018-03-14T09:13:20.456Z,54.30
2018-03-14T09:15:51.647Z,52.70
2018-03-14T09:18:21.516Z,52.80
2018-03-14T09:20:51.390Z,54.40
2018-03-14T09:23:20.952Z,55.00
2018-03-14T09:25:52.048Z,56.40
2018-03-14T09:28:21.606Z,56.30
2018-03-14T09:30:53.519Z,56.50
2018-03-14T09:33:23.310Z,56.50
2018-03-14T09:35:53.132Z,57.00
2018-03-14T09:38:23.887Z,53.30
2018-03-14T09:40:54.235Z,51.20
2018-03-14T09:43:24.202Z,47.60
2018-03-14T09:45:55.785Z,40.60
2018-03-14T09:48:29.422Z,34.70
2018-03-14T09:51:01.910Z,31.10
2018-03-14T09:53:32.614Z,33.80
2018-03-14T09:56:08.356Z,34.60
2018-03-14T09:58:38.056Z,34.60
2018-03-14T10:01:10.716Z,34.30
2018-03-14T10:03:45.884Z,40.60
2018-03-14T10:06:17.904Z,38.80
2018-03-14T10:08:48.295Z,38.20
2018-03-14T10:11:25.616Z,32.90
2018-03-14T10:13:56.566Z,31.20
2018-03-14T10:16:26.553Z,32.00
2018-03-14T10:18:56.524Z,32.30
2018-03-14T10:21:27.095Z,32.90
2018-03-14T10:23:56.724Z,30.50
2018-03-14T10:26:27.164Z,31.50
2018-03-14T10:28:56.987Z,36.50
2018-03-14T10:31:26.939Z,35.80
2018-03-14T10:33:56.751Z,31.40
2018-03-14T10:36:26.739Z,30.20
2018-03-14T10:38:56.831Z,34.80
2018-03-14T10:41:30.610Z,47.70
2018-03-14T10:47:32.378Z,53.10
2018-03-14T10:53:25.550Z,62.00
2018-03-14T10:55:55.783Z,62.00
2018-03-14T10:58:25.584Z,62.80
2018-03-14T11:01:12.062Z,62.10
2018-03-14T11:03:45.707Z,61.50
2018-03-14T11:06:16.588Z,58.60
2018-03-14T11:08:47.023Z,42.50
2018-03-14T11:11:16.528Z,42.60
2018-03-14T11:13:46.129Z,37.30
2018-03-14T11:16:15.825Z,32.70
2018-03-14T11:18:47.409Z,32.40
2018-03-14T11:21:17.110Z,33.20
2018-03-14T11:23:47.256Z,32.90
2018-03-14T11:26:16.970Z,35.20
2018-03-14T11:28:46.637Z,36.90
2018-03-14T11:31:17.268Z,42.00
2018-03-14T11:33:47.816Z,46.10
2018-03-14T11:36:18.351Z,50.40
2018-03-14T11:38:48.692Z,50.50
2018-03-14T11:41:18.259Z,55.50
2018-03-14T11:43:48.684Z,55.70
2018-03-14T11:46:19.132Z,57.20
2018-03-14T11:48:48.834Z,57.20
2018-03-14T11:51:21.234Z,60.70
2018-03-14T11:53:55.035Z,62.50
2018-03-14T11:56:25.342Z,61.40
2018-03-14T11:58:55.089Z,62.20
2018-03-14T12:01:24.702Z,60.80
2018-03-14T12:03:54.616Z,54.80
2018-03-14T12:06:24.421Z,56.50
2018-03-14T12:08:54.325Z,63.00
2018-03-14T12:11:24.084Z,62.10
2018-03-14T12:13:54.082Z,60.40
2018-03-14T12:16:23.754Z,60.60
2018-03-14T12:18:53.365Z,61.40
2018-03-14T12:21:23.199Z,62.20
2018-03-14T12:23:52.821Z,62.60
2018-03-14T12:26:22.499Z,60.80
2018-03-14T12:28:53.064Z,64.40
2018-03-14T12:31:22.868Z,63.80
2018-03-14T12:33:52.570Z,61.80
2018-03-14T12:36:22.820Z,64.10
2018-03-14T12:38:52.511Z,66.00
2018-03-14T12:41:22.192Z,65.90
2018-03-14T12:43:51.931Z,64.30
2018-03-14T12:46:21.719Z,62.20
2018-03-14T12:48:51.226Z,60.90
2018-03-14T12:51:20.849Z,59.40
2018-03-14T12:53:50.783Z,59.10
2018-03-14T12:56:21.400Z,60.90
2018-03-14T12:58:51.203Z,60.90
2018-03-14T13:01:20.810Z,60.80
2018-03-14T13:03:51.333Z,63.60
2018-03-14T13:06:20.989Z,62.10
2018-03-14T13:08:51.151Z,62.50
2018-03-14T13:11:21.786Z,61.30
2018-03-14T13:13:51.654Z,61.20
2018-03-14T13:16:21.284Z,59.00
2018-03-14T13:18:51.775Z,57.30
2018-03-14T13:21:29.209Z,57.40
2018-03-14T13:23:59.079Z,55.00
2018-03-14T13:26:28.682Z,55.10
2018-03-14T13:28:58.395Z,53.60
2018-03-14T13:31:28.211Z,55.10
2018-03-14T13:33:59.008Z,58.60
2018-03-14T13:36:28.518Z,58.70
2018-03-14T13:38:59.536Z,58.00
2018-03-14T13:41:29.149Z,56.30
2018-03-14T13:43:59.629Z,54.60
2018-03-14T13:46:30.901Z,54.60
2018-03-14T13:52:10.415Z,55.90
2018-03-14T13:54:43.866Z,53.50
2018-03-14T13:57:15.060Z,49.80
2018-03-14T13:59:44.691Z,49.90
2018-03-14T14:02:14.215Z,48.10
2018-03-14T14:04:44.627Z,44.50
2018-03-14T14:07:16.576Z,43.60
2018-03-14T14:09:46.764Z,43.60
2018-03-14T14:12:18.910Z,39.00
2018-03-14T14:14:49.218Z,39.00
2018-03-14T14:17:19.181Z,39.40
2018-03-14T14:19:48.786Z,39.40
2018-03-14T14:22:20.812Z,39.50
2018-03-14T14:24:50.497Z,39.60
2018-03-14T14:27:22.763Z,37.80
2018-03-14T14:29:52.519Z,37.10
2018-03-14T14:35:24.874Z,35.90
2018-03-14T14:37:54.584Z,33.40
2018-03-14T14:40:29.492Z,30.60
2018-03-14T14:43:03.302Z,30.10
2018-03-14T14:45:34.790Z,30.60
2018-03-14T14:48:34.957Z,31.50
2018-03-14T14:51:08.588Z,31.50
2018-03-14T14:53:39.496Z,31.40
2018-03-14T14:56:09.878Z,32.60
2018-03-14T14:58:39.586Z,33.20
2018-03-14T15:01:09.216Z,32.40
2018-03-14T15:03:40.520Z,32.90
2018-03-14T15:06:10.164Z,31.70
2018-03-14T15:08:39.827Z,31.10
2018-03-14T15:11:09.634Z,30.10
2018-03-14T15:13:39.154Z,31.00
2018-03-14T15:16:13.336Z,30.50
2018-03-14T15:18:43.673Z,31.40
2018-03-14T15:21:13.473Z,31.30
2018-03-14T15:23:44.153Z,32.30
2018-03-14T15:26:13.866Z,32.20
2018-03-14T15:28:44.727Z,31.20
2018-03-14T15:31:14.305Z,31.20
2018-03-14T15:33:44.094Z,31.50
2018-03-14T15:36:13.976Z,31.90
2018-03-14T15:38:44.376Z,31.60
2018-03-14T15:41:14.903Z,30.10
2018-03-14T15:43:45.067Z,30.00
2018-03-14T15:46:15.635Z,32.30
2018-03-14T15:48:57.921Z,36.40
2018-03-14T15:51:30.532Z,36.30
2018-03-14T15:54:00.503Z,37.80
2018-03-14T15:56:30.863Z,43.00
2018-03-14T15:59:01.170Z,43.00
2018-03-14T16:01:31.017Z,45.10
2018-03-14T16:04:00.794Z,46.70
2018-03-14T16:06:30.719Z,47.50
2018-03-14T16:09:02.013Z,48.50
2018-03-14T16:11:32.143Z,50.00
2018-03-14T16:14:02.075Z,50.40
2018-03-14T16:16:32.580Z,52.10
2018-03-14T16:19:04.766Z,52.80
2018-03-14T16:21:42.260Z,54.90
2018-03-14T16:24:34.812Z,54.80
2018-03-14T16:27:17.984Z,53.60
2018-03-14T16:30:16.462Z,53.60
2018-03-14T16:33:20.630Z,54.30
2018-03-14T16:36:00.760Z,56.20
2018-03-14T16:38:30.682Z,55.90
2018-03-14T16:41:01.469Z,55.50
2018-03-14T16:43:31.930Z,55.40
2018-03-14T16:46:03.694Z,57.60
2018-03-14T16:48:33.514Z,57.50
2018-03-14T16:51:03.239Z,57.50
2018-03-14T16:53:33.622Z,57.10
2018-03-14T16:56:03.240Z,56.90
2018-03-14T16:58:33.170Z,57.30
2018-03-14T17:01:02.790Z,58.30
2018-03-14T17:03:32.427Z,57.60
2018-03-14T17:06:02.078Z,59.00
2018-03-14T17:08:32.747Z,59.30
2018-03-14T17:11:03.916Z,60.10
2018-03-14T17:13:33.803Z,60.60
2018-03-14T17:16:03.894Z,60.80
2018-03-14T17:18:33.543Z,61.40
2018-03-14T17:21:03.110Z,61.60
2018-03-14T17:23:32.932Z,61.90
2018-03-14T17:26:04.267Z,62.90
2018-03-14T17:28:43.762Z,62.90
2018-03-14T17:31:14.113Z,63.20
2018-03-14T17:33:43.621Z,63.20
2018-03-14T17:36:13.627Z,63.20
2018-03-14T17:38:43.459Z,62.70
2018-03-14T17:41:13.127Z,63.00
2018-03-14T17:43:42.647Z,63.60
2018-03-14T17:46:13.031Z,64.20
2018-03-14T17:48:42.632Z,64.10
2018-03-14T17:51:12.209Z,63.60
2018-03-14T17:53:42.050Z,63.50
2018-03-14T17:56:11.736Z,63.30
2018-03-14T17:58:42.253Z,63.80
2018-03-14T18:01:13.231Z,63.90
2018-03-14T18:03:44.612Z,63.40
2018-03-14T18:06:14.184Z,63.40
2018-03-14T18:08:44.664Z,63.50
2018-03-14T18:11:15.103Z,63.50
2018-03-14T18:13:45.054Z,63.50
2018-03-14T18:16:14.617Z,63.60
2018-03-14T18:18:45.613Z,63.10
2018-03-14T18:21:16.243Z,63.60
2018-03-14T18:23:47.634Z,64.20
2018-03-14T18:26:18.328Z,64.00
2018-03-14T18:28:47.889Z,63.90
2018-03-14T18:31:17.643Z,64.30
2018-03-14T18:33:47.410Z,63.90
2018-03-14T18:36:17.886Z,64.20
2018-03-14T18:38:47.742Z,64.10
2018-03-14T18:41:17.267Z,63.50
2018-03-14T18:43:46.776Z,63.80
2018-03-14T18:46:31.651Z,63.80
2018-03-14T18:49:02.402Z,63.70
2018-03-14T18:51:33.761Z,63.60
2018-03-14T18:54:07.752Z,64.10
2018-03-14T18:56:37.681Z,64.10
2018-03-14T18:59:07.394Z,64.20
2018-03-14T19:01:37.109Z,64.40
2018-03-14T19:04:06.650Z,64.70
2018-03-14T19:06:37.036Z,64.20
2018-03-14T19:09:06.722Z,64.20
2018-03-14T19:11:36.221Z,64.30
2018-03-14T19:14:06.142Z,64.20
2018-03-14T19:16:36.783Z,64.00
2018-03-14T19:19:12.940Z,64.00
2018-03-14T19:21:44.572Z,64.20
2018-03-14T19:24:15.867Z,64.60
2018-03-14T19:26:45.480Z,64.60
2018-03-14T19:29:14.960Z,64.80
2018-03-14T19:31:44.697Z,65.10
2018-03-14T19:34:14.682Z,65.20
2018-03-14T19:36:50.742Z,65.80
2018-03-14T19:39:23.873Z,65.60
2018-03-14T19:42:00.416Z,65.60
2018-03-14T19:44:31.608Z,65.60
2018-03-14T19:47:03.545Z,65.90
2018-03-14T19:49:33.459Z,65.90
2018-03-14T19:52:02.965Z,65.90
2018-03-14T19:54:32.570Z,65.40
2018-03-14T19:57:02.446Z,65.00
2018-03-14T19:59:31.981Z,65.00
2018-03-14T20:02:01.711Z,65.70
2018-03-14T20:04:31.446Z,66.00
2018-03-14T20:07:01.028Z,66.50
2018-03-14T20:09:30.610Z,66.50
2018-03-14T20:12:00.522Z,66.60
2018-03-14T20:14:30.130Z,66.80
2018-03-14T20:16:59.944Z,67.50
2018-03-14T20:19:30.415Z,68.20
2018-03-14T20:22:01.262Z,68.70
2018-03-14T20:24:31.476Z,69.30
2018-03-14T20:27:01.750Z,69.10
2018-03-14T20:29:47.003Z,69.00
2018-03-14T20:32:17.377Z,68.70
2018-03-14T20:34:47.549Z,68.70
2018-03-14T20:37:18.057Z,68.60
2018-03-14T20:39:47.743Z,68.50
2018-03-14T20:42:17.232Z,68.70
2018-03-14T20:44:46.789Z,69.40
2018-03-14T20:47:16.370Z,70.00
2018-03-14T20:49:46.893Z,69.90
2018-03-14T20:52:16.706Z,69.80
2018-03-14T20:54:46.176Z,69.30
2018-03-14T20:57:16.615Z,69.10
2018-03-14T20:59:46.662Z,69.20
2018-03-14T21:02:18.048Z,69.80
2018-03-14T21:04:47.844Z,70.30
2018-03-14T21:07:17.635Z,70.90
2018-03-14T21:09:47.245Z,70.80
2018-03-14T21:12:16.719Z,71.30
2018-03-14T21:14:46.328Z,71.50
2018-03-14T21:17:16.134Z,72.40
2018-03-14T21:19:46.358Z,73.30
2018-03-14T21:22:16.101Z,74.70
2018-03-14T21:24:45.794Z,74.90
2018-03-14T21:27:15.589Z,74.70
2018-03-14T21:29:45.746Z,74.20
2018-03-14T21:32:16.317Z,73.40
2018-03-14T21:34:46.088Z,73.40
2018-03-14T21:37:16.772Z,73.20
2018-03-14T21:39:46.392Z,73.20
2018-03-14T21:42:17.058Z,73.40
2018-03-14T21:44:46.625Z,73.40
2018-03-14T21:47:16.930Z,74.00
2018-03-14T21:49:47.686Z,75.00
2018-03-14T21:52:17.926Z,74.90
2018-03-14T21:54:49.014Z,75.70
2018-03-14T21:57:20.609Z,76.30
2018-03-14T21:59:51.168Z,77.20
2018-03-14T22:02:21.077Z,77.10
2018-03-14T22:04:51.816Z,76.30
2018-03-14T22:07:21.736Z,76.20
2018-03-14T22:09:51.463Z,76.60
2018-03-14T22:12:21.301Z,77.20
2018-03-14T22:14:51.800Z,77.90
2018-03-14T22:17:21.399Z,77.90
2018-03-14T22:19:51.435Z,78.30
2018-03-14T22:22:27.114Z,79.70
2018-03-14T22:24:56.616Z,79.60
2018-03-14T22:27:28.232Z,80.90
2018-03-14T22:29:57.833Z,80.90
2018-03-14T22:32:27.361Z,81.10
2018-03-14T22:34:56.848Z,80.20
2018-03-14T22:37:26.407Z,80.00
2018-03-14T22:39:57.146Z,80.70
2018-03-14T22:42:26.927Z,80.60
2018-03-14T22:44:56.531Z,81.30
2018-03-14T22:47:26.233Z,82.20
2018-03-14T22:49:55.728Z,83.20
2018-03-14T22:52:26.526Z,81.90
2018-03-14T22:54:59.477Z,81.20
2018-03-14T22:57:29.036Z,81.10
2018-03-14T22:59:59.231Z,81.20
2018-03-14T23:02:29.752Z,80.70
2018-03-14T23:04:59.728Z,80.60
2018-03-14T23:07:29.416Z,80.30
2018-03-14T23:09:59.757Z,80.40
2018-03-14T23:12:30.462Z,79.20
2018-03-14T23:15:00.387Z,79.20
2018-03-14T23:17:30.879Z,78.50
2018-03-14T23:20:01.197Z,78.20
2018-03-14T23:22:31.452Z,78.20
2018-03-14T23:25:03.005Z,78.90
2018-03-14T23:27:32.607Z,78.90
2018-03-14T23:30:03.500Z,79.50
2018-03-14T23:32:33.029Z,79.50
2018-03-14T23:35:02.643Z,79.60
2018-03-14T23:37:33.767Z,79.00
2018-03-14T23:40:03.548Z,78.90
2018-03-14T23:42:33.177Z,79.40
2018-03-14T23:45:02.889Z,79.70
2018-03-14T23:47:34.645Z,79.90
2018-03-14T23:50:04.924Z,80.20
2018-03-14T23:52:36.453Z,81.20
2018-03-14T23:55:09.912Z,81.10
2018-03-14T23:57:43.126Z,83.60
